sensor_id;sensor_type;location;lat;lon;timestamp;P1;durP1;ratioP1;P2;durP2;ratioP2
16468;SDS011;8345;50.902;6.956;2022-12-07T00:00:06;21.47;;;17.77;;
16468;SDS011;8345;50.902;6.956;2022-12-07T00:02:34;22.03;;;18.03;;
16468;SDS011;8345;50.902;6.956;2022-12-07T00:05:02;23.90;;;18.73;;
16468;SDS011;8345;50.902;6.956;2022-12-07T00:07:30;21.47;;;18.13;;
16468;SDS011;8345;50.902;6.956;2022-12-07T00:09:57;21.37;;;17.87;;
16468;SDS011;8345;50.902;6.956;2022-12-07T00:12:24;20.10;;;17.83;;
16468;SDS011;8345;50.902;6.956;2022-12-07T00:14:51;22.40;;;17.80;;
16468;SDS011;8345;50.902;6.956;2022-12-07T00:17:18;22.80;;;19.57;;
16468;SDS011;8345;50.902;6.956;2022-12-07T00:19:46;21.23;;;18.87;;
16468;SDS011;8345;50.902;6.956;2022-12-07T00:22:14;24.93;;;18.90;;
16468;SDS011;8345;50.902;6.956;2022-12-07T00:24:41;23.77;;;19.37;;
16468;SDS011;8345;50.902;6.956;2022-12-07T00:27:08;25.10;;;19.97;;
16468;SDS011;8345;50.902;6.956;2022-12-07T00:29:36;21.90;;;18.63;;
16468;SDS011;8345;50.902;6.956;2022-12-07T00:32:03;21.40;;;19.20;;
16468;SDS011;8345;50.902;6.956;2022-12-07T00:34:30;23.10;;;19.57;;
16468;SDS011;8345;50.902;6.956;2022-12-07T00:36:57;23.60;;;19.67;;
16468;SDS011;8345;50.902;6.956;2022-12-07T00:39:26;23.97;;;20.53;;
16468;SDS011;8345;50.902;6.956;2022-12-07T00:41:53;23.77;;;20.57;;
16468;SDS011;8345;50.902;6.956;2022-12-07T00:44:20;24.30;;;19.67;;
16468;SDS011;8345;50.902;6.956;2022-12-07T00:46:47;23.90;;;18.60;;
16468;SDS011;8345;50.902;6.956;2022-12-07T00:49:15;22.77;;;19.43;;
16468;SDS011;8345;50.902;6.956;2022-12-07T00:51:42;24.73;;;20.47;;
16468;SDS011;8345;50.902;6.956;2022-12-07T00:54:09;24.10;;;20.67;;
16468;SDS011;8345;50.902;6.956;2022-12-07T00:56:38;21.73;;;19.20;;
16468;SDS011;8345;50.902;6.956;2022-12-07T00:59:05;26.53;;;20.13;;
16468;SDS011;8345;50.902;6.956;2022-12-07T01:01:33;23.80;;;20.07;;
16468;SDS011;8345;50.902;6.956;2022-12-07T01:04:00;23.17;;;20.67;;
16468;SDS011;8345;50.902;6.956;2022-12-07T01:06:28;24.40;;;20.30;;
16468;SDS011;8345;50.902;6.956;2022-12-07T01:08:55;22.50;;;19.90;;
16468;SDS011;8345;50.902;6.956;2022-12-07T01:11:23;25.40;;;21.17;;
16468;SDS011;8345;50.902;6.956;2022-12-07T01:13:53;26.13;;;21.70;;
16468;SDS011;8345;50.902;6.956;2022-12-07T01:16:21;27.53;;;21.43;;
16468;SDS011;8345;50.902;6.956;2022-12-07T01:18:51;25.67;;;21.13;;
16468;SDS011;8345;50.902;6.956;2022-12-07T01:21:19;23.80;;;20.47;;
16468;SDS011;8345;50.902;6.956;2022-12-07T01:23:47;24.50;;;21.47;;
16468;SDS011;8345;50.902;6.956;2022-12-07T01:26:15;27.60;;;21.17;;
16468;SDS011;8345;50.902;6.956;2022-12-07T01:28:42;24.33;;;21.70;;
16468;SDS011;8345;50.902;6.956;2022-12-07T01:31:12;26.07;;;21.67;;
16468;SDS011;8345;50.902;6.956;2022-12-07T01:33:40;24.97;;;21.47;;
16468;SDS011;8345;50.902;6.956;2022-12-07T01:36:08;23.00;;;20.50;;
16468;SDS011;8345;50.902;6.956;2022-12-07T01:38:39;23.83;;;21.07;;
16468;SDS011;8345;50.902;6.956;2022-12-07T01:41:06;26.17;;;21.93;;
16468;SDS011;8345;50.902;6.956;2022-12-07T01:43:33;28.47;;;22.27;;
16468;SDS011;8345;50.902;6.956;2022-12-07T01:46:02;24.33;;;21.60;;
16468;SDS011;8345;50.902;6.956;2022-12-07T01:48:32;23.50;;;20.27;;
16468;SDS011;8345;50.902;6.956;2022-12-07T01:51:02;23.50;;;20.27;;
16468;SDS011;8345;50.902;6.956;2022-12-07T01:53:30;24.43;;;20.57;;
16468;SDS011;8345;50.902;6.956;2022-12-07T01:55:58;24.43;;;20.57;;
16468;SDS011;8345;50.902;6.956;2022-12-07T01:58:26;23.40;;;20.67;;
16468;SDS011;8345;50.902;6.956;2022-12-07T02:00:53;24.60;;;22.00;;
16468;SDS011;8345;50.902;6.956;2022-12-07T02:03:21;24.90;;;21.50;;
16468;SDS011;8345;50.902;6.956;2022-12-07T02:05:51;22.20;;;19.93;;
16468;SDS011;8345;50.902;6.956;2022-12-07T02:08:18;22.17;;;19.80;;
16468;SDS011;8345;50.902;6.956;2022-12-07T02:10:46;24.00;;;20.20;;
16468;SDS011;8345;50.902;6.956;2022-12-07T02:13:14;24.17;;;21.53;;
16468;SDS011;8345;50.902;6.956;2022-12-07T02:15:50;24.10;;;20.90;;
16468;SDS011;8345;50.902;6.956;2022-12-07T02:18:21;23.27;;;20.63;;
16468;SDS011;8345;50.902;6.956;2022-12-07T02:20:53;24.50;;;20.70;;
16468;SDS011;8345;50.902;6.956;2022-12-07T02:23:38;23.13;;;20.17;;
16468;SDS011;8345;50.902;6.956;2022-12-07T02:26:16;25.00;;;21.70;;
16468;SDS011;8345;50.902;6.956;2022-12-07T02:31:32;26.23;;;21.57;;
16468;SDS011;8345;50.902;6.956;2022-12-07T02:34:02;23.70;;;20.43;;
16468;SDS011;8345;50.902;6.956;2022-12-07T02:36:32;25.67;;;20.60;;
16468;SDS011;8345;50.902;6.956;2022-12-07T02:39:02;25.13;;;21.33;;
16468;SDS011;8345;50.902;6.956;2022-12-07T02:41:33;26.03;;;21.63;;
16468;SDS011;8345;50.902;6.956;2022-12-07T02:44:03;24.67;;;21.43;;
16468;SDS011;8345;50.902;6.956;2022-12-07T02:46:35;23.83;;;21.23;;
16468;SDS011;8345;50.902;6.956;2022-12-07T02:49:04;24.37;;;20.37;;
16468;SDS011;8345;50.902;6.956;2022-12-07T02:51:32;26.90;;;21.90;;
16468;SDS011;8345;50.902;6.956;2022-12-07T02:53:59;21.70;;;18.83;;
16468;SDS011;8345;50.902;6.956;2022-12-07T02:56:27;23.93;;;20.80;;
16468;SDS011;8345;50.902;6.956;2022-12-07T02:59:00;24.93;;;21.30;;
16468;SDS011;8345;50.902;6.956;2022-12-07T03:01:30;23.47;;;20.40;;
16468;SDS011;8345;50.902;6.956;2022-12-07T03:04:05;24.63;;;21.00;;
16468;SDS011;8345;50.902;6.956;2022-12-07T03:06:39;26.13;;;21.73;;
16468;SDS011;8345;50.902;6.956;2022-12-07T03:09:10;25.50;;;21.23;;
16468;SDS011;8345;50.902;6.956;2022-12-07T03:11:42;25.33;;;20.40;;
16468;SDS011;8345;50.902;6.956;2022-12-07T03:14:13;25.57;;;21.37;;
16468;SDS011;8345;50.902;6.956;2022-12-07T03:16:43;26.33;;;21.77;;
16468;SDS011;8345;50.902;6.956;2022-12-07T03:19:15;26.77;;;21.23;;
16468;SDS011;8345;50.902;6.956;2022-12-07T03:21:44;25.03;;;20.77;;
16468;SDS011;8345;50.902;6.956;2022-12-07T03:24:14;26.67;;;21.53;;
16468;SDS011;8345;50.902;6.956;2022-12-07T03:26:42;25.33;;;20.90;;
16468;SDS011;8345;50.902;6.956;2022-12-07T03:29:13;26.27;;;22.13;;
16468;SDS011;8345;50.902;6.956;2022-12-07T03:31:43;24.33;;;20.90;;
16468;SDS011;8345;50.902;6.956;2022-12-07T03:34:14;24.53;;;21.03;;
16468;SDS011;8345;50.902;6.956;2022-12-07T03:36:43;23.00;;;20.20;;
16468;SDS011;8345;50.902;6.956;2022-12-07T03:39:16;24.27;;;21.17;;
16468;SDS011;8345;50.902;6.956;2022-12-07T03:41:44;23.87;;;21.23;;
16468;SDS011;8345;50.902;6.956;2022-12-07T03:44:12;24.10;;;20.33;;
16468;SDS011;8345;50.902;6.956;2022-12-07T03:46:41;24.33;;;21.33;;
16468;SDS011;8345;50.902;6.956;2022-12-07T03:49:11;26.17;;;21.73;;
16468;SDS011;8345;50.902;6.956;2022-12-07T03:51:42;23.57;;;20.73;;
16468;SDS011;8345;50.902;6.956;2022-12-07T03:54:13;25.87;;;20.60;;
16468;SDS011;8345;50.902;6.956;2022-12-07T03:56:42;24.20;;;21.30;;
16468;SDS011;8345;50.902;6.956;2022-12-07T03:59:10;24.10;;;19.87;;
16468;SDS011;8345;50.902;6.956;2022-12-07T04:01:38;23.77;;;21.10;;
16468;SDS011;8345;50.902;6.956;2022-12-07T04:04:05;23.20;;;20.50;;
16468;SDS011;8345;50.902;6.956;2022-12-07T04:06:32;23.87;;;19.43;;
16468;SDS011;8345;50.902;6.956;2022-12-07T04:09:01;21.57;;;18.97;;
16468;SDS011;8345;50.902;6.956;2022-12-07T04:11:28;20.97;;;18.20;;
16468;SDS011;8345;50.902;6.956;2022-12-07T04:13:55;19.77;;;17.73;;
16468;SDS011;8345;50.902;6.956;2022-12-07T04:16:40;20.50;;;18.30;;
16468;SDS011;8345;50.902;6.956;2022-12-07T04:19:07;22.20;;;18.33;;
16468;SDS011;8345;50.902;6.956;2022-12-07T04:21:34;21.70;;;18.47;;
16468;SDS011;8345;50.902;6.956;2022-12-07T04:24:03;22.60;;;19.30;;
16468;SDS011;8345;50.902;6.956;2022-12-07T04:26:30;23.30;;;18.97;;
16468;SDS011;8345;50.902;6.956;2022-12-07T04:28:58;24.00;;;18.90;;
16468;SDS011;8345;50.902;6.956;2022-12-07T04:31:25;20.30;;;18.20;;
16468;SDS011;8345;50.902;6.956;2022-12-07T04:33:52;21.17;;;18.87;;
16468;SDS011;8345;50.902;6.956;2022-12-07T04:36:19;22.93;;;19.13;;
16468;SDS011;8345;50.902;6.956;2022-12-07T04:38:46;22.13;;;19.17;;
16468;SDS011;8345;50.902;6.956;2022-12-07T04:41:15;26.00;;;21.57;;
16468;SDS011;8345;50.902;6.956;2022-12-07T04:43:42;20.77;;;18.13;;
16468;SDS011;8345;50.902;6.956;2022-12-07T04:46:09;23.87;;;19.63;;
16468;SDS011;8345;50.902;6.956;2022-12-07T04:48:36;24.73;;;19.57;;
16468;SDS011;8345;50.902;6.956;2022-12-07T04:51:04;24.77;;;20.53;;
16468;SDS011;8345;50.902;6.956;2022-12-07T04:53:31;22.63;;;20.20;;
16468;SDS011;8345;50.902;6.956;2022-12-07T04:55:58;21.20;;;19.00;;
16468;SDS011;8345;50.902;6.956;2022-12-07T04:58:27;21.10;;;18.87;;
16468;SDS011;8345;50.902;6.956;2022-12-07T05:00:54;26.97;;;19.13;;
16468;SDS011;8345;50.902;6.956;2022-12-07T05:03:21;22.67;;;19.03;;
16468;SDS011;8345;50.902;6.956;2022-12-07T05:05:49;20.60;;;18.40;;
16468;SDS011;8345;50.902;6.956;2022-12-07T05:08:16;20.57;;;18.30;;
16468;SDS011;8345;50.902;6.956;2022-12-07T05:10:43;22.07;;;18.93;;
16468;SDS011;8345;50.902;6.956;2022-12-07T05:13:10;22.03;;;19.63;;
16468;SDS011;8345;50.902;6.956;2022-12-07T05:15:39;24.80;;;19.60;;
16468;SDS011;8345;50.902;6.956;2022-12-07T05:18:07;21.10;;;18.97;;
16468;SDS011;8345;50.902;6.956;2022-12-07T05:20:35;21.37;;;18.43;;
16468;SDS011;8345;50.902;6.956;2022-12-07T05:23:02;21.03;;;18.60;;
16468;SDS011;8345;50.902;6.956;2022-12-07T05:25:29;21.50;;;19.20;;
16468;SDS011;8345;50.902;6.956;2022-12-07T05:27:56;25.03;;;18.53;;
16468;SDS011;8345;50.902;6.956;2022-12-07T05:30:24;19.83;;;17.73;;
16468;SDS011;8345;50.902;6.956;2022-12-07T05:32:53;20.87;;;17.67;;
16468;SDS011;8345;50.902;6.956;2022-12-07T05:35:20;20.57;;;18.30;;
16468;SDS011;8345;50.902;6.956;2022-12-07T05:37:47;21.93;;;17.97;;
16468;SDS011;8345;50.902;6.956;2022-12-07T05:40:15;19.97;;;17.73;;
16468;SDS011;8345;50.902;6.956;2022-12-07T05:42:44;21.83;;;17.23;;
16468;SDS011;8345;50.902;6.956;2022-12-07T05:45:11;19.67;;;17.63;;
16468;SDS011;8345;50.902;6.956;2022-12-07T05:47:38;20.47;;;17.03;;
16468;SDS011;8345;50.902;6.956;2022-12-07T05:50:07;24.00;;;18.87;;
16468;SDS011;8345;50.902;6.956;2022-12-07T05:52:35;21.23;;;18.30;;
16468;SDS011;8345;50.902;6.956;2022-12-07T05:55:02;23.43;;;19.97;;
16468;SDS011;8345;50.902;6.956;2022-12-07T05:57:29;25.13;;;19.97;;
16468;SDS011;8345;50.902;6.956;2022-12-07T05:59:57;22.67;;;19.47;;
16468;SDS011;8345;50.902;6.956;2022-12-07T06:02:23;23.87;;;19.53;;
16468;SDS011;8345;50.902;6.956;2022-12-07T06:04:50;24.40;;;19.67;;
16468;SDS011;8345;50.902;6.956;2022-12-07T06:07:18;21.63;;;18.53;;
16468;SDS011;8345;50.902;6.956;2022-12-07T06:09:46;23.17;;;18.67;;
16468;SDS011;8345;50.902;6.956;2022-12-07T06:12:13;21.90;;;18.17;;
16468;SDS011;8345;50.902;6.956;2022-12-07T06:14:58;22.67;;;18.30;;
16468;SDS011;8345;50.902;6.956;2022-12-07T06:17:25;23.27;;;20.60;;
16468;SDS011;8345;50.902;6.956;2022-12-07T06:19:52;23.30;;;19.43;;
16468;SDS011;8345;50.902;6.956;2022-12-07T06:22:21;25.23;;;19.87;;
16468;SDS011;8345;50.902;6.956;2022-12-07T06:24:48;25.30;;;21.30;;
16468;SDS011;8345;50.902;6.956;2022-12-07T06:27:15;23.03;;;19.90;;
16468;SDS011;8345;50.902;6.956;2022-12-07T06:29:42;25.53;;;21.10;;
16468;SDS011;8345;50.902;6.956;2022-12-07T06:32:09;24.03;;;19.63;;
16468;SDS011;8345;50.902;6.956;2022-12-07T06:34:37;24.80;;;20.67;;
16468;SDS011;8345;50.902;6.956;2022-12-07T06:37:04;24.17;;;21.17;;
16468;SDS011;8345;50.902;6.956;2022-12-07T06:39:33;23.80;;;21.00;;
16468;SDS011;8345;50.902;6.956;2022-12-07T06:42:00;23.93;;;21.30;;
16468;SDS011;8345;50.902;6.956;2022-12-07T06:44:27;24.70;;;20.67;;
16468;SDS011;8345;50.902;6.956;2022-12-07T06:46:55;24.50;;;21.03;;
16468;SDS011;8345;50.902;6.956;2022-12-07T06:49:22;23.70;;;20.37;;
16468;SDS011;8345;50.902;6.956;2022-12-07T06:51:49;24.23;;;20.53;;
16468;SDS011;8345;50.902;6.956;2022-12-07T06:54:16;25.70;;;21.50;;
16468;SDS011;8345;50.902;6.956;2022-12-07T06:56:45;24.47;;;20.50;;
16468;SDS011;8345;50.902;6.956;2022-12-07T06:59:12;24.27;;;20.70;;
16468;SDS011;8345;50.902;6.956;2022-12-07T07:01:39;27.05;;;24.38;;
16468;SDS011;8345;50.902;6.956;2022-12-07T07:04:06;24.47;;;21.87;;
16468;SDS011;8345;50.902;6.956;2022-12-07T07:06:34;25.80;;;21.97;;
16468;SDS011;8345;50.902;6.956;2022-12-07T07:09:01;28.17;;;21.80;;
16468;SDS011;8345;50.902;6.956;2022-12-07T07:11:28;23.27;;;20.60;;
16468;SDS011;8345;50.902;6.956;2022-12-07T07:13:57;25.83;;;20.73;;
16468;SDS011;8345;50.902;6.956;2022-12-07T07:16:27;23.90;;;19.97;;
16468;SDS011;8345;50.902;6.956;2022-12-07T07:18:55;22.63;;;20.23;;
16468;SDS011;8345;50.902;6.956;2022-12-07T07:21:22;23.83;;;21.27;;
16468;SDS011;8345;50.902;6.956;2022-12-07T07:23:49;25.20;;;20.53;;
16468;SDS011;8345;50.902;6.956;2022-12-07T07:26:17;24.53;;;19.33;;
16468;SDS011;8345;50.902;6.956;2022-12-07T07:28:44;25.23;;;20.17;;
16468;SDS011;8345;50.902;6.956;2022-12-07T07:31:12;23.47;;;20.93;;
16468;SDS011;8345;50.902;6.956;2022-12-07T07:33:40;23.20;;;19.80;;
16468;SDS011;8345;50.902;6.956;2022-12-07T07:36:07;25.03;;;20.80;;
16468;SDS011;8345;50.902;6.956;2022-12-07T07:38:35;24.27;;;20.50;;
16468;SDS011;8345;50.902;6.956;2022-12-07T07:41:02;25.57;;;20.50;;
16468;SDS011;8345;50.902;6.956;2022-12-07T07:43:29;24.93;;;20.83;;
16468;SDS011;8345;50.902;6.956;2022-12-07T07:45:56;24.80;;;19.97;;
16468;SDS011;8345;50.902;6.956;2022-12-07T07:48:25;21.13;;;18.27;;
16468;SDS011;8345;50.902;6.956;2022-12-07T07:50:52;23.97;;;19.87;;
16468;SDS011;8345;50.902;6.956;2022-12-07T07:53:19;27.17;;;21.23;;
16468;SDS011;8345;50.902;6.956;2022-12-07T07:55:50;24.47;;;20.33;;
16468;SDS011;8345;50.902;6.956;2022-12-07T07:58:18;23.90;;;19.63;;
16468;SDS011;8345;50.902;6.956;2022-12-07T08:00:45;23.33;;;20.40;;
16468;SDS011;8345;50.902;6.956;2022-12-07T08:03:12;24.90;;;20.80;;
16468;SDS011;8345;50.902;6.956;2022-12-07T08:05:41;22.40;;;20.00;;
16468;SDS011;8345;50.902;6.956;2022-12-07T08:08:08;26.70;;;21.50;;
16468;SDS011;8345;50.902;6.956;2022-12-07T08:10:35;26.60;;;21.30;;
16468;SDS011;8345;50.902;6.956;2022-12-07T08:13:02;27.60;;;21.00;;
16468;SDS011;8345;50.902;6.956;2022-12-07T08:15:39;24.20;;;20.73;;
16468;SDS011;8345;50.902;6.956;2022-12-07T08:18:07;26.90;;;20.57;;
16468;SDS011;8345;50.902;6.956;2022-12-07T08:20:35;21.70;;;19.33;;
16468;SDS011;8345;50.902;6.956;2022-12-07T08:23:04;25.03;;;21.13;;
16468;SDS011;8345;50.902;6.956;2022-12-07T08:25:31;20.50;;;18.17;;
16468;SDS011;8345;50.902;6.956;2022-12-07T08:27:59;21.43;;;17.57;;
16468;SDS011;8345;50.902;6.956;2022-12-07T08:30:26;20.03;;;17.17;;
16468;SDS011;8345;50.902;6.956;2022-12-07T08:32:54;20.60;;;17.70;;
16468;SDS011;8345;50.902;6.956;2022-12-07T08:35:22;21.13;;;17.00;;
16468;SDS011;8345;50.902;6.956;2022-12-07T08:37:49;20.77;;;17.20;;
16468;SDS011;8345;50.902;6.956;2022-12-07T08:40:18;21.57;;;17.93;;
16468;SDS011;8345;50.902;6.956;2022-12-07T08:42:48;19.40;;;15.67;;
16468;SDS011;8345;50.902;6.956;2022-12-07T08:45:16;21.20;;;15.30;;
16468;SDS011;8345;50.902;6.956;2022-12-07T08:47:44;17.97;;;15.07;;
16468;SDS011;8345;50.902;6.956;2022-12-07T08:50:12;21.67;;;15.47;;
16468;SDS011;8345;50.902;6.956;2022-12-07T08:52:40;18.33;;;14.97;;
16468;SDS011;8345;50.902;6.956;2022-12-07T08:55:08;19.17;;;16.03;;
16468;SDS011;8345;50.902;6.956;2022-12-07T08:57:37;25.73;;;17.73;;
16468;SDS011;8345;50.902;6.956;2022-12-07T09:00:06;18.73;;;16.00;;
16468;SDS011;8345;50.902;6.956;2022-12-07T09:02:34;22.20;;;15.43;;
16468;SDS011;8345;50.902;6.956;2022-12-07T09:05:01;23.17;;;17.07;;
16468;SDS011;8345;50.902;6.956;2022-12-07T09:07:28;25.33;;;22.60;;
16468;SDS011;8345;50.902;6.956;2022-12-07T09:09:56;23.87;;;17.07;;
16468;SDS011;8345;50.902;6.956;2022-12-07T09:12:24;15.90;;;14.27;;
16468;SDS011;8345;50.902;6.956;2022-12-07T09:14:52;16.83;;;14.17;;
16468;SDS011;8345;50.902;6.956;2022-12-07T09:17:19;16.43;;;13.43;;
16468;SDS011;8345;50.902;6.956;2022-12-07T09:19:46;17.80;;;14.73;;
16468;SDS011;8345;50.902;6.956;2022-12-07T09:22:13;20.07;;;14.23;;
16468;SDS011;8345;50.902;6.956;2022-12-07T09:24:41;17.23;;;14.20;;
16468;SDS011;8345;50.902;6.956;2022-12-07T09:27:08;18.17;;;14.17;;
16468;SDS011;8345;50.902;6.956;2022-12-07T09:29:35;17.70;;;13.73;;
16468;SDS011;8345;50.902;6.956;2022-12-07T09:32:05;16.97;;;13.13;;
16468;SDS011;8345;50.902;6.956;2022-12-07T09:34:32;15.33;;;12.67;;
16468;SDS011;8345;50.902;6.956;2022-12-07T09:37:00;14.93;;;13.33;;
16468;SDS011;8345;50.902;6.956;2022-12-07T09:39:29;20.50;;;14.47;;
16468;SDS011;8345;50.902;6.956;2022-12-07T09:41:56;17.67;;;14.60;;
16468;SDS011;8345;50.902;6.956;2022-12-07T09:44:25;15.87;;;13.13;;
16468;SDS011;8345;50.902;6.956;2022-12-07T09:46:53;15.13;;;13.03;;
16468;SDS011;8345;50.902;6.956;2022-12-07T09:49:23;17.67;;;13.87;;
16468;SDS011;8345;50.902;6.956;2022-12-07T09:51:59;18.10;;;14.47;;
16468;SDS011;8345;50.902;6.956;2022-12-07T09:54:27;17.13;;;13.77;;
16468;SDS011;8345;50.902;6.956;2022-12-07T09:56:55;17.00;;;13.70;;
16468;SDS011;8345;50.902;6.956;2022-12-07T09:59:22;18.23;;;13.53;;
16468;SDS011;8345;50.902;6.956;2022-12-07T10:01:49;16.53;;;13.17;;
16468;SDS011;8345;50.902;6.956;2022-12-07T10:04:18;15.83;;;13.13;;
16468;SDS011;8345;50.902;6.956;2022-12-07T10:06:47;15.23;;;12.50;;
16468;SDS011;8345;50.902;6.956;2022-12-07T10:09:17;14.67;;;12.87;;
16468;SDS011;8345;50.902;6.956;2022-12-07T10:12:04;15.60;;;12.33;;
16468;SDS011;8345;50.902;6.956;2022-12-07T10:14:32;20.77;;;13.83;;
16468;SDS011;8345;50.902;6.956;2022-12-07T10:17:00;17.47;;;13.13;;
16468;SDS011;8345;50.902;6.956;2022-12-07T10:19:28;15.70;;;12.73;;
16468;SDS011;8345;50.902;6.956;2022-12-07T10:22:12;14.97;;;13.37;;
16468;SDS011;8345;50.902;6.956;2022-12-07T10:24:40;19.57;;;13.13;;
16468;SDS011;8345;50.902;6.956;2022-12-07T10:27:17;15.43;;;10.90;;
16468;SDS011;8345;50.902;6.956;2022-12-07T10:29:46;16.07;;;10.77;;
16468;SDS011;8345;50.902;6.956;2022-12-07T10:32:25;11.27;;;9.20;;
16468;SDS011;8345;50.902;6.956;2022-12-07T10:35:15;11.50;;;10.10;;
16468;SDS011;8345;50.902;6.956;2022-12-07T10:37:46;12.57;;;10.03;;
16468;SDS011;8345;50.902;6.956;2022-12-07T10:40:23;14.70;;;10.70;;
16468;SDS011;8345;50.902;6.956;2022-12-07T10:43:00;12.47;;;10.13;;
16468;SDS011;8345;50.902;6.956;2022-12-07T10:45:27;13.10;;;10.30;;
16468;SDS011;8345;50.902;6.956;2022-12-07T10:47:55;15.37;;;10.07;;
16468;SDS011;8345;50.902;6.956;2022-12-07T10:50:35;12.47;;;10.07;;
16468;SDS011;8345;50.902;6.956;2022-12-07T10:53:30;14.67;;;10.03;;
16468;SDS011;8345;50.902;6.956;2022-12-07T10:56:03;15.27;;;9.90;;
16468;SDS011;8345;50.902;6.956;2022-12-07T10:58:39;11.97;;;9.83;;
16468;SDS011;8345;50.902;6.956;2022-12-07T11:01:13;13.43;;;10.43;;
16468;SDS011;8345;50.902;6.956;2022-12-07T11:06:33;17.03;;;9.90;;
16468;SDS011;8345;50.902;6.956;2022-12-07T11:09:08;15.00;;;9.50;;
16468;SDS011;8345;50.902;6.956;2022-12-07T11:11:44;10.87;;;8.37;;
16468;SDS011;8345;50.902;6.956;2022-12-07T11:14:16;11.13;;;7.43;;
16468;SDS011;8345;50.902;6.956;2022-12-07T11:16:49;11.77;;;7.63;;
16468;SDS011;8345;50.902;6.956;2022-12-07T11:19:31;9.97;;;7.70;;
16468;SDS011;8345;50.902;6.956;2022-12-07T11:22:00;10.33;;;6.83;;
16468;SDS011;8345;50.902;6.956;2022-12-07T11:24:33;11.17;;;7.20;;
16468;SDS011;8345;50.902;6.956;2022-12-07T11:27:11;10.93;;;6.93;;
16468;SDS011;8345;50.902;6.956;2022-12-07T11:29:44;9.77;;;7.00;;
16468;SDS011;8345;50.902;6.956;2022-12-07T11:32:15;9.60;;;7.17;;
16468;SDS011;8345;50.902;6.956;2022-12-07T11:34:46;9.60;;;6.07;;
16468;SDS011;8345;50.902;6.956;2022-12-07T11:37:16;12.37;;;6.27;;
16468;SDS011;8345;50.902;6.956;2022-12-07T11:39:48;10.13;;;6.67;;
16468;SDS011;8345;50.902;6.956;2022-12-07T11:42:19;10.63;;;7.13;;
16468;SDS011;8345;50.902;6.956;2022-12-07T11:44:49;8.73;;;5.63;;
16468;SDS011;8345;50.902;6.956;2022-12-07T11:47:20;8.43;;;5.93;;
16468;SDS011;8345;50.902;6.956;2022-12-07T11:49:51;8.40;;;5.87;;
16468;SDS011;8345;50.902;6.956;2022-12-07T11:52:22;8.73;;;5.40;;
16468;SDS011;8345;50.902;6.956;2022-12-07T11:54:53;12.27;;;6.17;;
16468;SDS011;8345;50.902;6.956;2022-12-07T11:57:22;9.53;;;6.00;;
16468;SDS011;8345;50.902;6.956;2022-12-07T11:59:52;10.33;;;5.83;;
16468;SDS011;8345;50.902;6.956;2022-12-07T12:02:21;8.70;;;5.60;;
16468;SDS011;8345;50.902;6.956;2022-12-07T12:04:51;10.93;;;6.43;;
16468;SDS011;8345;50.902;6.956;2022-12-07T12:07:21;11.93;;;6.57;;
16468;SDS011;8345;50.902;6.956;2022-12-07T12:09:49;8.77;;;6.57;;
16468;SDS011;8345;50.902;6.956;2022-12-07T12:12:23;10.00;;;7.00;;
16468;SDS011;8345;50.902;6.956;2022-12-07T12:15:03;11.37;;;7.33;;
16468;SDS011;8345;50.902;6.956;2022-12-07T12:17:37;11.10;;;7.20;;
16468;SDS011;8345;50.902;6.956;2022-12-07T12:20:13;12.20;;;8.67;;
16468;SDS011;8345;50.902;6.956;2022-12-07T12:22:43;13.87;;;8.67;;
16468;SDS011;8345;50.902;6.956;2022-12-07T12:25:14;11.87;;;8.13;;
16468;SDS011;8345;50.902;6.956;2022-12-07T12:27:46;13.53;;;8.47;;
16468;SDS011;8345;50.902;6.956;2022-12-07T12:30:24;15.53;;;8.10;;
16468;SDS011;8345;50.902;6.956;2022-12-07T12:32:51;12.60;;;8.80;;
16468;SDS011;8345;50.902;6.956;2022-12-07T12:35:29;13.00;;;9.47;;
16468;SDS011;8345;50.902;6.956;2022-12-07T12:40:43;11.87;;;9.37;;
16468;SDS011;8345;50.902;6.956;2022-12-07T12:48:40;13.30;;;8.73;;
16468;SDS011;8345;50.902;6.956;2022-12-07T12:53:57;15.37;;;9.17;;
16468;SDS011;8345;50.902;6.956;2022-12-07T12:56:34;14.30;;;10.03;;
16468;SDS011;8345;50.902;6.956;2022-12-07T13:01:48;11.90;;;9.07;;
16468;SDS011;8345;50.902;6.956;2022-12-07T13:07:13;14.50;;;9.53;;
16468;SDS011;8345;50.902;6.956;2022-12-07T13:09:59;10.10;;;8.93;;
16468;SDS011;8345;50.902;6.956;2022-12-07T13:12:27;12.60;;;9.87;;
16468;SDS011;8345;50.902;6.956;2022-12-07T13:14:55;16.10;;;9.33;;
16468;SDS011;8345;50.902;6.956;2022-12-07T13:20:09;11.67;;;9.00;;
16468;SDS011;8345;50.902;6.956;2022-12-07T13:28:09;10.93;;;8.67;;
16468;SDS011;8345;50.902;6.956;2022-12-07T13:30:40;13.90;;;8.30;;
16468;SDS011;8345;50.902;6.956;2022-12-07T13:33:10;11.43;;;8.47;;
16468;SDS011;8345;50.902;6.956;2022-12-07T13:35:37;12.17;;;9.23;;
16468;SDS011;8345;50.902;6.956;2022-12-07T13:38:13;11.97;;;9.50;;
16468;SDS011;8345;50.902;6.956;2022-12-07T13:40:41;14.30;;;8.87;;
16468;SDS011;8345;50.902;6.956;2022-12-07T13:43:13;10.07;;;8.43;;
16468;SDS011;8345;50.902;6.956;2022-12-07T13:45:46;12.57;;;8.17;;
16468;SDS011;8345;50.902;6.956;2022-12-07T13:48:24;13.07;;;8.30;;
16468;SDS011;8345;50.902;6.956;2022-12-07T13:50:55;10.50;;;7.93;;
16468;SDS011;8345;50.902;6.956;2022-12-07T13:53:22;9.07;;;7.13;;
16468;SDS011;8345;50.902;6.956;2022-12-07T13:55:53;11.70;;;6.77;;
16468;SDS011;8345;50.902;6.956;2022-12-07T13:58:22;12.00;;;7.67;;
16468;SDS011;8345;50.902;6.956;2022-12-07T14:00:49;9.33;;;8.13;;
16468;SDS011;8345;50.902;6.956;2022-12-07T14:03:27;11.53;;;6.80;;
16468;SDS011;8345;50.902;6.956;2022-12-07T14:06:05;9.50;;;7.70;;
16468;SDS011;8345;50.902;6.956;2022-12-07T14:08:34;16.37;;;7.87;;
16468;SDS011;8345;50.902;6.956;2022-12-07T14:11:02;10.23;;;7.40;;
16468;SDS011;8345;50.902;6.956;2022-12-07T14:13:39;11.77;;;7.10;;
16468;SDS011;8345;50.902;6.956;2022-12-07T14:16:17;12.33;;;8.23;;
16468;SDS011;8345;50.902;6.956;2022-12-07T14:18:45;11.83;;;8.80;;
16468;SDS011;8345;50.902;6.956;2022-12-07T14:21:15;11.00;;;8.03;;
16468;SDS011;8345;50.902;6.956;2022-12-07T14:23:42;11.80;;;8.80;;
16468;SDS011;8345;50.902;6.956;2022-12-07T14:26:11;11.20;;;8.53;;
16468;SDS011;8345;50.902;6.956;2022-12-07T14:28:40;12.63;;;8.80;;
16468;SDS011;8345;50.902;6.956;2022-12-07T14:31:10;13.53;;;9.07;;
16468;SDS011;8345;50.902;6.956;2022-12-07T14:33:38;11.43;;;9.13;;
16468;SDS011;8345;50.902;6.956;2022-12-07T14:36:05;13.93;;;8.83;;
16468;SDS011;8345;50.902;6.956;2022-12-07T14:38:33;13.93;;;9.30;;
16468;SDS011;8345;50.902;6.956;2022-12-07T14:41:00;11.87;;;8.67;;
16468;SDS011;8345;50.902;6.956;2022-12-07T14:43:42;13.03;;;9.23;;
16468;SDS011;8345;50.902;6.956;2022-12-07T14:46:09;11.30;;;9.07;;
16468;SDS011;8345;50.902;6.956;2022-12-07T14:48:37;11.70;;;9.03;;
16468;SDS011;8345;50.902;6.956;2022-12-07T14:51:04;12.77;;;8.57;;
16468;SDS011;8345;50.902;6.956;2022-12-07T14:53:34;14.00;;;9.50;;
16468;SDS011;8345;50.902;6.956;2022-12-07T14:56:02;12.60;;;10.30;;
16468;SDS011;8345;50.902;6.956;2022-12-07T14:58:31;13.47;;;9.40;;
16468;SDS011;8345;50.902;6.956;2022-12-07T15:01:02;13.73;;;9.23;;
16468;SDS011;8345;50.902;6.956;2022-12-07T15:03:29;12.83;;;9.10;;
16468;SDS011;8345;50.902;6.956;2022-12-07T15:06:00;14.23;;;9.43;;
16468;SDS011;8345;50.902;6.956;2022-12-07T15:08:27;15.93;;;9.80;;
16468;SDS011;8345;50.902;6.956;2022-12-07T15:10:55;13.80;;;9.30;;
16468;SDS011;8345;50.902;6.956;2022-12-07T15:13:24;11.60;;;9.50;;
16468;SDS011;8345;50.902;6.956;2022-12-07T15:16:11;12.30;;;10.03;;
16468;SDS011;8345;50.902;6.956;2022-12-07T15:18:43;15.10;;;9.80;;
16468;SDS011;8345;50.902;6.956;2022-12-07T15:21:13;10.47;;;9.47;;